Mr. Roland — WDG6848 — position and weather

sailwx.info

Track history (hours):
 
Tides and Currents Weather Stations Pressure Air Temp Water Temp Dewpoint Dewpoint Depression Visibility Wind Speed Wind Dir Waves Ship Positions

Mr. Roland

Owner: T. K. TOWING, INC, MORGAN CITY, LA. More information available from US FCC via Universal Licensing System and Coast Guard Vessel Documentation Center.

Last reported at 2017-Sep-13 19:54 UTC. Time now 2017-Sep-25 13:35 UTC.
Position N 29°33' W 090°27'.
Warning: this ship's position is 11 days out of date.

Length 20 m; draft 2 m.

Type: Other ship. MMSI: 367561320.

Date/timePositionNaut miles runAvg speedWind from/ knotsBaromVisibWave heightAir tempDewpointWater temp
2017-Sep-13 19:54N 29°33' W 090°27'3 6.4
2017-Sep-13 19:30N 29°34' W 090°30'3 6.4
2017-Sep-13 19:00N 29°34' W 090°33'3 6.1
2017-Sep-13 18:30N 29°35' W 090°37'3 6.0
2017-Sep-13 18:00N 29°36' W 090°40'6 4.1
2017-Sep-13 16:36N 29°33' W 090°45'1 6.7
2017-Sep-13 16:30N 29°32' W 090°46'3 6.2
2017-Sep-13 16:00N 29°32' W 090°49'3 6.5
2017-Sep-13 15:30N 29°32' W 090°53'  
2017-Sep-04 11:34N 29°32' W 090°51'0 6.7
2017-Sep-04 11:30N 29°32' W 090°50'3 6.6
2017-Sep-04 11:00N 29°32' W 090°46'3 5.2
2017-Sep-04 10:30N 29°34' W 090°44'2 3.6
2017-Sep-04 10:00N 29°33' W 090°42'3 6.4
2017-Sep-04 09:30N 29°30' W 090°43'3 6.4
2017-Sep-04 09:00N 29°27' W 090°43'4 6.3
2017-Sep-04 08:24N 29°23' W 090°44'3 6.2
2017-Sep-04 07:58N 29°20' W 090°44'2 1.6
2017-Sep-04 06:36N 29°22' W 090°44'1 6.3
2017-Sep-04 06:29N 29°23' W 090°44'3 6.6
2017-Sep-04 06:00N 29°26' W 090°43'3 6.6
2017-Sep-04 05:30N 29°29' W 090°43'3 6.9
2017-Sep-04 05:00N 29°33' W 090°42'2 4.1
2017-Sep-04 04:30N 29°34' W 090°44'3 5.3
2017-Sep-04 04:00N 29°32' W 090°47'3 6.1
2017-Sep-04 03:30N 29°32' W 090°50'3 5.9
2017-Sep-04 03:00N 29°33' W 090°54'  
Track history (hours):
 
Tides and Currents Weather Stations Pressure Air Temp Water Temp Dewpoint Dewpoint Depression Visibility Wind Speed Wind Dir Waves Ship Positions

Mr. Roland

Owner: T. K. TOWING, INC, MORGAN CITY, LA. More information available from US FCC via Universal Licensing System and Coast Guard Vessel Documentation Center.

Last reported at 2017-Sep-13 19:54 UTC. Time now 2017-Sep-25 13:35 UTC.
Position N 29°33' W 090°27'.
Warning: this ship's position is 11 days out of date.

Length 20 m; draft 2 m.

Type: Other ship. MMSI: 367561320.

Date/timePositionNaut miles runAvg speedWind from/ knotsBaromVisibWave heightAir tempDewpointWater temp
2017-Sep-13 19:54N 29°33' W 090°27'3 6.4
2017-Sep-13 19:30N 29°34' W 090°30'3 6.4
2017-Sep-13 19:00N 29°34' W 090°33'3 6.1
2017-Sep-13 18:30N 29°35' W 090°37'3 6.0
2017-Sep-13 18:00N 29°36' W 090°40'6 4.1
2017-Sep-13 16:36N 29°33' W 090°45'1 6.7
2017-Sep-13 16:30N 29°32' W 090°46'3 6.2
2017-Sep-13 16:00N 29°32' W 090°49'3 6.5
2017-Sep-13 15:30N 29°32' W 090°53'  
2017-Sep-04 11:34N 29°32' W 090°51'0 6.7
2017-Sep-04 11:30N 29°32' W 090°50'3 6.6
2017-Sep-04 11:00N 29°32' W 090°46'3 5.2
2017-Sep-04 10:30N 29°34' W 090°44'2 3.6
2017-Sep-04 10:00N 29°33' W 090°42'3 6.4
2017-Sep-04 09:30N 29°30' W 090°43'3 6.4
2017-Sep-04 09:00N 29°27' W 090°43'4 6.3
2017-Sep-04 08:24N 29°23' W 090°44'3 6.2
2017-Sep-04 07:58N 29°20' W 090°44'2 1.6
2017-Sep-04 06:36N 29°22' W 090°44'1 6.3
2017-Sep-04 06:29N 29°23' W 090°44'3 6.6
2017-Sep-04 06:00N 29°26' W 090°43'3 6.6
2017-Sep-04 05:30N 29°29' W 090°43'3 6.9
2017-Sep-04 05:00N 29°33' W 090°42'2 4.1
2017-Sep-04 04:30N 29°34' W 090°44'3 5.3
2017-Sep-04 04:00N 29°32' W 090°47'3 6.1
2017-Sep-04 03:30N 29°32' W 090°50'3 5.9
2017-Sep-04 03:00N 29°33' W 090°54'  

Dump ship's entire track history